Aérodrome :
LOGIN :

S'inscrire | Disclaimer

   EN    FR    IT 

 










Légende :    VFR   VFR Marginal   IFR   IFR Intensif   IFR Très Intensif
Visi : 
Plafond : 
>= 8 km
>= 3000ft
5 à 8 km
1000 à 3000 ft
1500m à 5 km
500 à 1000 ft
800 à 1500m
200 à 500 ft
< 800m
< 200 ft
Symboles :   Orages  Brouillard  Fortes neiges  Fortes précipitations  Vent > 20 kt
SIGMETs :   Divers  Orages  Givrage  Turbulence  Onde Orograph.  Cendres Volcan.







- Altitude de l'aérodrome : 433 ft
- Voir les cartes d'approche


LFOC - Chateaudun

DERNIER METAR :
  • 230830Z AUTO 21008KT 180V250 9999 BKN012 16/13 Q1017 BECMG BKN025

METARs EXPIRÉS :
  • 230800Z AUTO 22008KT 180V250 9999 SCT011 15/13 Q1017 NOSIG
  • 230730Z AUTO 20005KT 9999 BKN015 14/13 Q1017 NOSIG
  • 230700Z AUTO 21006KT 9999 OVC014 13/13 Q1017 BECMG BKN030
  • 230630Z AUTO 19006KT 9999 OVC014 12/12 Q1017 BECMG BKN030
  • 230600Z AUTO 19004KT 9999 BKN019 11/10 Q1016 NOSIG

TAF TAF LFOC
Valide du 23 à 09h jusqu'au 24 à 09h UTC


230800Z 2309/2409 21012KT 9999 BKN025
TEMPO 2404/2409 3000 RA OVC010
Pas de NOTAMs connus pour ce terrain.



MET'MAP, la Météo Aéronautique d'un coup d'oeil ! - Copyright ORBIFLY Décembre 2007 - Disclaimer

ORBIFLY MET'MAP TEAM :

Programmation & Développement : Alexandra Zaïnal
Conception & Développement : Baudouin d'Aumeries
Co-Programmation & Développement : Marc-Olivier Méhu
Soutien technique & logistique : Manuel Goepfert

Contact : metmap@orbifly.com




SOURCES & CREDITS :

   NOAA